createdAt,value
2022-08-11T00:01:27.669Z,101906.72
2022-08-11T00:03:57.686Z,101904.91
2022-08-11T00:06:38.846Z,101911.91
2022-08-11T00:09:10.023Z,101901.97
2022-08-11T00:11:46.803Z,101897.41
2022-08-11T00:14:36.929Z,101885.38
2022-08-11T00:17:16.318Z,101893.25
2022-08-11T00:20:11.559Z,101892.22
2022-08-11T00:22:40.328Z,101893.81
2022-08-11T00:25:20.518Z,101881.56
2022-08-11T00:27:49.310Z,101892.53
2022-08-11T00:30:17.304Z,101886.53
2022-08-11T00:32:55.328Z,101887.78
2022-08-11T00:35:55.653Z,101899.53
2022-08-11T00:38:18.829Z,101899.56
2022-08-11T00:41:04.779Z,101895.84
2022-08-11T00:44:18.350Z,101891.13
2022-08-11T00:47:32.089Z,101904.50
2022-08-11T00:50:19.955Z,101894.63
2022-08-11T00:53:14.741Z,101907.38
2022-08-11T00:56:29.360Z,101907.72
2022-08-11T00:59:35.284Z,101907.31
2022-08-11T01:02:17.155Z,101911.91
2022-08-11T01:05:05.269Z,101915.47
2022-08-11T01:08:28.498Z,101909.81
2022-08-11T01:11:29.761Z,101905.13
2022-08-11T01:14:34.398Z,101903.03
2022-08-11T01:17:01.630Z,101909.78
2022-08-11T01:20:46.181Z,101903.75
2022-08-11T01:23:19.743Z,101911.59
2022-08-11T01:26:01.456Z,101909.88
2022-08-11T01:29:03.511Z,101912.53
2022-08-11T01:32:08.443Z,101912.31
2022-08-11T01:35:05.336Z,101908.63
2022-08-11T01:38:21.363Z,101914.69
2022-08-11T01:41:53.846Z,101908.25
2022-08-11T01:44:39.817Z,101908.13
2022-08-11T01:47:53.187Z,101889.06
2022-08-11T01:50:46.597Z,101898.09
2022-08-11T01:53:40.436Z,101892.50
2022-08-11T01:56:33.487Z,101899.91
2022-08-11T01:59:23.108Z,101898.44
2022-08-11T02:02:21.315Z,101904.47
2022-08-11T02:05:11.223Z,101908.03
2022-08-11T02:08:01.817Z,101896.22
2022-08-11T02:11:14.788Z,101905.28
2022-08-11T02:14:12.997Z,101901.75
2022-08-11T02:16:53.302Z,101909.47
2022-08-11T02:20:06.876Z,101905.94
2022-08-11T02:23:59.592Z,101899.88
2022-08-11T02:26:42.454Z,101907.97
2022-08-11T02:29:28.162Z,101911.53
2022-08-11T02:32:46.484Z,101900.06
2022-08-11T02:35:25.591Z,101905.16
2022-08-11T02:38:26.778Z,101900.63
2022-08-11T02:41:48.449Z,101894.19
2022-08-11T02:44:49.178Z,101891.59
2022-08-11T02:48:19.140Z,101895.84
2022-08-11T02:51:10.340Z,101900.16
2022-08-11T02:54:11.678Z,101889.69
2022-08-11T02:57:02.929Z,101885.09
2022-08-11T02:59:51.393Z,101890.31
2022-08-11T03:02:49.087Z,101886.66
2022-08-11T03:05:24.537Z,101886.97
2022-08-11T03:08:11.959Z,101881.44
2022-08-11T03:11:29.616Z,101887.38
2022-08-11T03:14:39.826Z,101887.41
2022-08-11T03:17:29.956Z,101884.00
2022-08-11T03:20:03.111Z,101882.41
2022-08-11T03:22:39.742Z,101886.06
2022-08-11T03:25:13.189Z,101888.59
2022-08-11T03:28:03.460Z,101888.53
2022-08-11T03:30:57.147Z,101886.34
2022-08-11T03:34:06.615Z,101882.53
2022-08-11T03:37:41.805Z,101876.03
2022-08-11T03:41:00.270Z,101875.19
2022-08-11T03:44:08.397Z,101882.88
2022-08-11T03:46:54.002Z,101867.88
2022-08-11T03:50:11.743Z,101878.22
2022-08-11T03:52:59.958Z,101875.00
2022-08-11T03:56:18.177Z,101874.81
2022-08-11T03:59:08.834Z,101876.75
2022-08-11T04:02:39.424Z,101876.75
2022-08-11T04:06:07.249Z,101880.44
2022-08-11T04:09:46.887Z,101873.19
2022-08-11T04:12:38.453Z,101879.41
2022-08-11T04:16:11.907Z,101873.31
2022-08-11T04:19:40.141Z,101877.00
2022-08-11T04:22:45.866Z,101889.38
2022-08-11T04:25:54.563Z,101874.00
2022-08-11T04:29:10.479Z,101881.41
2022-08-11T04:32:04.088Z,101882.22
2022-08-11T04:35:09.301Z,101889.00
2022-08-11T04:38:00.109Z,101887.38
2022-08-11T04:41:08.889Z,101882.59
2022-08-11T04:44:15.643Z,101890.47
2022-08-11T04:47:12.862Z,101886.19
2022-08-11T04:50:26.762Z,101884.63
2022-08-11T04:53:43.062Z,101887.47
2022-08-11T04:56:36.984Z,101880.19
2022-08-11T04:59:55.097Z,101880.56
2022-08-11T05:03:23.431Z,101879.34
2022-08-11T05:06:32.924Z,101871.38
2022-08-11T05:09:27.182Z,101881.19
2022-08-11T05:12:20.149Z,101881.84
2022-08-11T05:15:11.130Z,101878.59
2022-08-11T05:18:18.365Z,101892.66
2022-08-11T05:21:15.778Z,101888.22
2022-08-11T05:24:15.631Z,101881.84
2022-08-11T05:27:13.400Z,101890.13
2022-08-11T05:30:04.678Z,101894.13
2022-08-11T05:33:01.752Z,101887.06
2022-08-11T05:36:01.801Z,101894.38
2022-08-11T05:38:54.733Z,101899.53
2022-08-11T05:41:46.096Z,101895.50
2022-08-11T05:44:38.171Z,101906.09
2022-08-11T05:47:24.262Z,101895.31
2022-08-11T05:50:13.677Z,101895.63
2022-08-11T05:53:05.167Z,101896.69
2022-08-11T05:56:03.856Z,101891.75
2022-08-11T05:58:43.619Z,101898.34
2022-08-11T06:01:22.126Z,101896.47
2022-08-11T06:04:11.339Z,101886.81
2022-08-11T06:06:45.181Z,101887.81
2022-08-11T06:09:14.440Z,101884.75
2022-08-11T06:11:44.990Z,101890.13
2022-08-11T06:14:13.275Z,101889.88
2022-08-11T06:16:43.040Z,101888.63
2022-08-11T06:19:10.955Z,101895.41
2022-08-11T06:21:38.389Z,101899.09
2022-08-11T06:24:13.460Z,101906.59
2022-08-11T06:27:11.322Z,101893.34
2022-08-11T06:29:47.842Z,101898.63
2022-08-11T06:32:21.607Z,101904.50
2022-08-11T06:35:20.223Z,101892.56
2022-08-11T06:37:58.986Z,101895.91
2022-08-11T06:41:10.127Z,101893.06
2022-08-11T06:44:13.073Z,101898.59
2022-08-11T06:46:42.074Z,101898.56
2022-08-11T06:49:33.777Z,101896.50
2022-08-11T06:52:12.747Z,101902.09
2022-08-11T06:55:05.554Z,101899.03
2022-08-11T06:57:57.837Z,101890.00
2022-08-11T07:00:30.087Z,101885.09
2022-08-11T07:03:17.008Z,101892.31
2022-08-11T07:06:03.229Z,101889.72
2022-08-11T07:09:04.967Z,101894.28
2022-08-11T07:12:21.261Z,101899.31
2022-08-11T07:15:15.481Z,101898.66
2022-08-11T07:18:11.000Z,101903.34
2022-08-11T07:21:02.182Z,101908.19
2022-08-11T07:23:55.219Z,101899.28
2022-08-11T07:26:44.011Z,101898.59
2022-08-11T07:29:14.217Z,101902.06
2022-08-11T07:31:51.213Z,101901.41
2022-08-11T07:34:21.943Z,101898.25
2022-08-11T07:37:12.589Z,101909.75
2022-08-11T07:39:41.531Z,101904.56
2022-08-11T07:42:12.379Z,101903.06
2022-08-11T07:45:00.689Z,101898.97
2022-08-11T07:47:48.229Z,101902.28
2022-08-11T07:50:34.474Z,101902.28
2022-08-11T07:53:03.389Z,101905.88
2022-08-11T07:55:49.116Z,101899.13
2022-08-11T07:58:44.957Z,101902.66
2022-08-11T08:01:39.768Z,101896.72
2022-08-11T08:04:28.051Z,101904.00
2022-08-11T08:07:15.283Z,101898.97
2022-08-11T08:10:02.610Z,101905.06
2022-08-11T08:12:49.771Z,101897.44
2022-08-11T08:15:36.987Z,101902.44
2022-08-11T08:18:20.671Z,101893.94
2022-08-11T08:20:55.045Z,101894.25
2022-08-11T08:23:35.762Z,101895.75
2022-08-11T08:26:26.517Z,101897.72
2022-08-11T08:28:55.527Z,101896.41
2022-08-11T08:31:23.289Z,101901.09
2022-08-11T08:33:51.645Z,101900.50
2022-08-11T08:36:22.491Z,101893.34
2022-08-11T08:38:54.296Z,101891.03
2022-08-11T08:41:28.899Z,101891.16
2022-08-11T08:44:27.795Z,101889.63
2022-08-11T08:46:55.507Z,101890.50
2022-08-11T08:49:41.713Z,101887.84
2022-08-11T08:52:30.607Z,101878.28
2022-08-11T08:55:05.603Z,101887.75
2022-08-11T08:57:39.508Z,101891.13
2022-08-11T09:00:08.862Z,101883.84
2022-08-11T09:02:40.011Z,101883.72
2022-08-11T09:05:10.026Z,101882.41
2022-08-11T09:07:39.913Z,101882.28
2022-08-11T09:10:11.110Z,101885.97
2022-08-11T09:12:42.328Z,101883.91
2022-08-11T09:15:11.886Z,101879.31
2022-08-11T09:17:52.159Z,101878.38
2022-08-11T09:20:25.386Z,101881.34
2022-08-11T09:24:07.372Z,101877.59
2022-08-11T09:26:22.674Z,101876.63
2022-08-11T09:28:59.684Z,101878.34
2022-08-11T09:31:34.581Z,101869.88
2022-08-11T09:34:06.511Z,101877.34
2022-08-11T09:36:53.421Z,101870.91
2022-08-11T09:39:39.204Z,101873.97
2022-08-11T09:42:06.699Z,101871.16
2022-08-11T09:44:52.267Z,101872.50
2022-08-11T09:47:28.535Z,101867.25
2022-08-11T09:50:02.582Z,101864.84
2022-08-11T09:52:35.923Z,101858.84
2022-08-11T09:55:10.972Z,101851.09
2022-08-11T09:58:04.756Z,101866.72
2022-08-11T10:00:40.218Z,101860.50
2022-08-11T10:03:24.059Z,101853.56
2022-08-11T10:06:20.282Z,101847.38
2022-08-11T10:09:00.934Z,101850.63
2022-08-11T10:11:29.197Z,101841.06
2022-08-11T10:14:32.935Z,101841.78
2022-08-11T10:17:10.527Z,101840.00
2022-08-11T10:19:38.730Z,101843.66
2022-08-11T10:22:27.875Z,101841.06
2022-08-11T10:25:19.699Z,101831.25
2022-08-11T10:28:28.322Z,101828.19
2022-08-11T10:31:06.785Z,101831.66
2022-08-11T10:33:59.716Z,101831.84
2022-08-11T10:36:50.176Z,101831.81
2022-08-11T10:39:21.835Z,101825.84
2022-08-11T10:42:12.381Z,101819.56
2022-08-11T10:44:48.216Z,101810.91
2022-08-11T10:47:34.998Z,101811.50
2022-08-11T10:50:27.996Z,101815.47
2022-08-11T10:53:17.027Z,101803.66
2022-08-11T10:58:51.029Z,101794.63
2022-08-11T11:01:32.830Z,101785.97
2022-08-11T11:04:15.205Z,101793.22
2022-08-11T11:07:00.098Z,101782.06
2022-08-11T11:09:51.687Z,101788.28
2022-08-11T11:12:44.054Z,101783.97
2022-08-11T11:15:31.669Z,101790.78
2022-08-11T11:18:12.002Z,101783.09
2022-08-11T11:20:47.460Z,101781.06
2022-08-11T11:23:27.266Z,101786.22
2022-08-11T11:26:43.567Z,101773.16
2022-08-11T11:29:54.693Z,101775.03
2022-08-11T11:32:35.648Z,101771.84
2022-08-11T11:35:15.951Z,101772.59
2022-08-11T11:38:03.747Z,101772.63
2022-08-11T11:40:33.604Z,101768.97
2022-08-11T11:43:01.776Z,101769.84
2022-08-11T11:45:29.376Z,101772.19
2022-08-11T11:48:00.087Z,101763.00
2022-08-11T11:50:36.917Z,101769.81
2022-08-11T11:53:12.092Z,101774.44
2022-08-11T11:55:39.460Z,101758.56
2022-08-11T11:58:25.445Z,101762.56
2022-08-11T12:01:12.562Z,101764.78
2022-08-11T12:03:40.994Z,101761.75
2022-08-11T12:06:09.671Z,101766.00
2022-08-11T12:08:37.963Z,101753.31
2022-08-11T12:11:28.082Z,101755.44
2022-08-11T12:13:59.933Z,101744.09
2022-08-11T12:16:33.060Z,101743.31
2022-08-11T12:19:07.050Z,101750.69
2022-08-11T12:21:36.850Z,101742.97
2022-08-11T12:24:29.245Z,101742.09
2022-08-11T12:27:17.647Z,101747.13
2022-08-11T12:29:55.616Z,101734.44
2022-08-11T12:32:30.125Z,101734.66
2022-08-11T12:34:58.280Z,101731.44
2022-08-11T12:37:33.985Z,101722.19
2022-08-11T12:40:42.618Z,101723.38
2022-08-11T12:43:38.389Z,101717.59
2022-08-11T12:46:32.109Z,101719.94
2022-08-11T12:49:23.654Z,101721.25
2022-08-11T12:52:10.933Z,101719.53
2022-08-11T12:55:13.416Z,101718.16
2022-08-11T12:58:05.818Z,101720.03
2022-08-11T13:00:51.648Z,101710.56
2022-08-11T13:03:41.000Z,101714.28
2022-08-11T13:06:08.666Z,101713.09
2022-08-11T13:08:38.682Z,101705.56
2022-08-11T13:11:25.345Z,101705.31
2022-08-11T13:14:15.359Z,101709.72
2022-08-11T13:17:02.903Z,101698.34
2022-08-11T13:19:31.570Z,101696.59
2022-08-11T13:21:58.887Z,101682.28
2022-08-11T13:24:26.343Z,101678.75
2022-08-11T13:26:53.574Z,101682.72
2022-08-11T13:29:29.010Z,101681.66
2022-08-11T13:31:59.808Z,101686.34
2022-08-11T13:34:33.041Z,101682.44
2022-08-11T13:37:05.127Z,101671.66
2022-08-11T13:39:35.207Z,101680.72
2022-08-11T13:42:04.090Z,101668.06
2022-08-11T13:44:36.455Z,101680.84
2022-08-11T13:47:06.473Z,101664.81
2022-08-11T13:49:39.851Z,101662.22
2022-08-11T13:52:15.495Z,101669.25
2022-08-11T13:54:45.713Z,101662.91
2022-08-11T13:58:06.262Z,101662.00
2022-08-11T14:00:23.406Z,101656.66
2022-08-11T14:02:54.150Z,101670.84
2022-08-11T14:05:29.422Z,101651.28
2022-08-11T14:08:03.045Z,101653.94
2022-08-11T14:10:34.349Z,101652.63
2022-08-11T14:13:26.026Z,101643.38
2022-08-11T14:15:53.812Z,101640.78
2022-08-11T14:18:29.355Z,101629.22
2022-08-11T14:21:23.540Z,101627.75
2022-08-11T14:23:59.319Z,101627.53
2022-08-11T14:26:31.184Z,101622.44
2022-08-11T14:29:13.226Z,101625.81
2022-08-11T14:31:54.578Z,101619.19
2022-08-11T14:34:30.174Z,101613.63
2022-08-11T14:37:13.736Z,101607.41
2022-08-11T14:40:03.830Z,101599.16
2022-08-11T14:42:49.705Z,101602.44
2022-08-11T14:45:54.409Z,101599.84
2022-08-11T14:48:23.828Z,101597.22
2022-08-11T14:50:51.706Z,101605.00
2022-08-11T14:53:22.570Z,101599.91
2022-08-11T14:56:08.631Z,101594.16
2022-08-11T14:58:37.811Z,101589.81
2022-08-11T15:01:28.235Z,101588.06
2022-08-11T15:04:33.942Z,101583.50
2022-08-11T15:06:43.766Z,101580.94
2022-08-11T15:09:11.534Z,101591.50
2022-08-11T15:11:57.358Z,101582.13
2022-08-11T15:14:43.128Z,101585.28
2022-08-11T15:17:13.085Z,101584.06
2022-08-11T15:20:02.400Z,101569.09
2022-08-11T15:22:48.160Z,101563.34
2022-08-11T15:25:15.361Z,101572.19
2022-08-11T15:28:02.528Z,101567.78
2022-08-11T15:30:49.444Z,101574.22
2022-08-11T15:33:37.377Z,101567.56
2022-08-11T15:36:27.564Z,101558.75
2022-08-11T15:39:00.339Z,101559.06
2022-08-11T15:42:07.426Z,101558.69
2022-08-11T15:45:04.563Z,101557.81
2022-08-11T15:48:06.644Z,101556.03
2022-08-11T15:50:40.276Z,101548.22
2022-08-11T15:53:24.102Z,101549.38
2022-08-11T15:55:52.121Z,101546.47
2022-08-11T15:58:39.991Z,101555.16
2022-08-11T16:01:27.855Z,101546.31
2022-08-11T16:04:14.268Z,101541.06
2022-08-11T16:07:00.104Z,101534.69
2022-08-11T16:09:51.754Z,101536.91
2022-08-11T16:12:26.539Z,101543.25
2022-08-11T16:15:20.123Z,101530.50
2022-08-11T16:17:52.681Z,101540.84
2022-08-11T16:20:26.787Z,101535.19
2022-08-11T16:23:01.741Z,101534.63
2022-08-11T16:27:03.822Z,101532.25
2022-08-11T16:28:20.845Z,101520.16
2022-08-11T16:30:48.925Z,101526.50
2022-08-11T16:33:49.086Z,101530.31
2022-08-11T16:36:24.676Z,101534.78
2022-08-11T16:38:54.381Z,101533.94
2022-08-11T16:41:44.650Z,101533.22
2022-08-11T16:44:38.079Z,101541.00
2022-08-11T16:47:18.721Z,101537.91
2022-08-11T16:50:07.185Z,101524.56
2022-08-11T16:52:34.522Z,101532.03
2022-08-11T16:55:03.847Z,101537.41
2022-08-11T16:57:52.978Z,101536.84
2022-08-11T17:00:23.195Z,101535.06
2022-08-11T17:03:11.621Z,101534.78
2022-08-11T17:06:11.430Z,101520.03
2022-08-11T17:09:12.005Z,101509.50
2022-08-11T17:12:23.852Z,101517.13
2022-08-11T17:14:58.095Z,101510.69
2022-08-11T17:17:33.354Z,101512.16
2022-08-11T17:20:42.644Z,101519.75
2022-08-11T17:23:23.034Z,101519.31
2022-08-11T17:26:03.677Z,101519.84
2022-08-11T17:28:32.199Z,101519.28
2022-08-11T17:31:22.465Z,101517.13
2022-08-11T17:34:10.335Z,101523.25
2022-08-11T17:36:41.568Z,101518.72
2022-08-11T17:39:16.538Z,101518.03
2022-08-11T17:42:03.263Z,101517.28
2022-08-11T17:44:50.761Z,101519.69
2022-08-11T17:47:38.298Z,101520.66
2022-08-11T17:50:16.504Z,101519.44
2022-08-11T17:53:05.228Z,101520.94
2022-08-11T17:55:53.930Z,101527.22
2022-08-11T17:58:40.296Z,101520.72
2022-08-11T18:01:12.588Z,101527.81
2022-08-11T18:03:42.115Z,101522.56
2022-08-11T18:06:32.597Z,101520.28
2022-08-11T18:09:23.922Z,101532.94
2022-08-11T18:12:13.002Z,101520.91
2022-08-11T18:15:05.910Z,101534.66
2022-08-11T18:17:55.765Z,101542.00
2022-08-11T18:20:45.178Z,101539.28
2022-08-11T18:23:46.779Z,101541.16
2022-08-11T18:26:38.637Z,101539.88
2022-08-11T18:29:26.440Z,101540.28
2022-08-11T18:32:21.970Z,101533.88
2022-08-11T18:35:11.131Z,101533.19
2022-08-11T18:38:06.256Z,101533.34
2022-08-11T18:40:54.252Z,101536.06
2022-08-11T18:43:43.348Z,101546.94
2022-08-11T18:46:31.880Z,101547.44
2022-08-11T18:49:24.557Z,101540.16
2022-08-11T18:52:14.563Z,101547.84
2022-08-11T18:55:03.392Z,101546.44
2022-08-11T18:57:53.808Z,101540.44
2022-08-11T19:00:43.826Z,101548.38
2022-08-11T19:03:43.327Z,101548.56
2022-08-11T19:06:40.114Z,101552.03
2022-08-11T19:09:32.741Z,101548.72
2022-08-11T19:12:20.158Z,101550.78
2022-08-11T19:15:09.973Z,101553.13
2022-08-11T19:17:59.407Z,101564.94
2022-08-11T19:20:49.028Z,101567.69
2022-08-11T19:23:39.635Z,101574.38
2022-08-11T19:26:25.930Z,101566.09
2022-08-11T19:30:07.992Z,101574.50
2022-08-11T19:32:20.589Z,101581.56
2022-08-11T19:35:07.756Z,101582.34
2022-08-11T19:37:54.559Z,101582.38
2022-08-11T19:40:40.413Z,101594.81
2022-08-11T19:43:27.225Z,101591.19
2022-08-11T19:46:17.673Z,101587.81
2022-08-11T19:49:08.452Z,101599.28
2022-08-11T19:51:56.239Z,101594.94
2022-08-11T19:54:47.694Z,101594.66
2022-08-11T19:57:38.954Z,101596.22
2022-08-11T20:00:33.012Z,101603.69
2022-08-11T20:03:25.418Z,101608.16
2022-08-11T20:06:12.253Z,101608.97
2022-08-11T20:09:01.961Z,101606.56
2022-08-11T20:11:54.539Z,101613.41
2022-08-11T20:14:43.596Z,101614.78
2022-08-11T20:17:32.623Z,101613.19
2022-08-11T20:20:24.470Z,101613.16
2022-08-11T20:23:12.720Z,101611.03
2022-08-11T20:26:08.491Z,101611.28
2022-08-11T20:29:05.051Z,101607.63
2022-08-11T20:31:51.279Z,101620.19
2022-08-11T20:34:37.523Z,101605.88
2022-08-11T20:37:24.655Z,101610.91
2022-08-11T20:40:13.558Z,101600.97
2022-08-11T20:43:00.779Z,101602.88
2022-08-11T20:45:55.206Z,101603.16
2022-08-11T20:48:45.757Z,101610.94
2022-08-11T20:51:33.981Z,101610.53
2022-08-11T20:54:43.160Z,101619.22
2022-08-11T20:57:59.299Z,101617.97
2022-08-11T21:00:44.002Z,101623.38
2022-08-11T21:03:35.608Z,101626.88
2022-08-11T21:06:31.316Z,101620.19
2022-08-11T21:09:25.007Z,101619.50
2022-08-11T21:12:29.605Z,101620.59
2022-08-11T21:15:39.043Z,101626.81
2022-08-11T21:18:27.545Z,101632.00
2022-08-11T21:21:18.198Z,101633.19
2022-08-11T21:24:06.351Z,101625.06
2022-08-11T21:26:53.817Z,101631.84
2022-08-11T21:29:42.199Z,101630.44
2022-08-11T21:32:28.965Z,101632.59
2022-08-11T21:35:15.729Z,101618.75
2022-08-11T21:38:02.370Z,101627.16
2022-08-11T21:40:53.955Z,101622.88
2022-08-11T21:43:39.888Z,101624.50
2022-08-11T21:46:27.826Z,101622.75
2022-08-11T21:49:21.176Z,101603.31
2022-08-11T21:52:06.603Z,101608.63
2022-08-11T21:54:52.010Z,101610.81
2022-08-11T21:57:48.068Z,101611.00
2022-08-11T22:00:36.474Z,101612.84
2022-08-11T22:03:23.951Z,101615.13
2022-08-11T22:06:12.387Z,101611.75
2022-08-11T22:08:58.516Z,101619.09
2022-08-11T22:11:44.210Z,101611.84
2022-08-11T22:14:29.837Z,101617.75
2022-08-11T22:17:15.077Z,101619.47
2022-08-11T22:20:01.291Z,101624.97
2022-08-11T22:22:52.006Z,101620.50
2022-08-11T22:25:51.449Z,101614.78
2022-08-11T22:28:40.475Z,101616.03
2022-08-11T22:31:27.539Z,101618.47
2022-08-11T22:34:13.406Z,101617.81
2022-08-11T22:37:01.593Z,101615.81
2022-08-11T22:39:59.986Z,101612.84
2022-08-11T22:42:51.390Z,101615.91
2022-08-11T22:45:38.266Z,101617.00
2022-08-11T22:48:25.300Z,101607.53
2022-08-11T22:51:12.706Z,101611.91
2022-08-11T22:53:59.470Z,101609.47
2022-08-11T22:56:50.717Z,101606.28
2022-08-11T22:59:37.769Z,101604.84
2022-08-11T23:02:26.045Z,101608.03
2022-08-11T23:05:12.811Z,101606.47
2022-08-11T23:07:59.096Z,101619.84
2022-08-11T23:10:45.960Z,101617.19
2022-08-11T23:13:32.597Z,101620.44
2022-08-11T23:16:19.036Z,101606.19
2022-08-11T23:19:05.995Z,101619.81
2022-08-11T23:21:53.542Z,101614.09
2022-08-11T23:24:40.524Z,101610.38
2022-08-11T23:27:28.517Z,101621.03
2022-08-11T23:30:18.830Z,101624.72
2022-08-11T23:33:08.689Z,101615.78
2022-08-11T23:36:01.041Z,101623.34
2022-08-11T23:38:49.294Z,101625.91
2022-08-11T23:41:35.468Z,101622.31
2022-08-11T23:44:22.927Z,101619.19
2022-08-11T23:47:14.101Z,101623.75
2022-08-11T23:50:00.704Z,101627.44
2022-08-11T23:52:47.950Z,101622.94
2022-08-11T23:55:33.797Z,101629.25
2022-08-11T23:58:19.667Z,101618.53
